createdAt,value
2022-08-27T00:00:14.641Z,20.90
2022-08-27T00:02:42.561Z,20.84
2022-08-27T00:05:10.444Z,20.82
2022-08-27T00:07:37.551Z,20.81
2022-08-27T00:10:07.494Z,20.81
2022-08-27T00:12:34.932Z,20.62
2022-08-27T00:15:01.988Z,20.65
2022-08-27T00:17:29.203Z,20.70
2022-08-27T00:19:55.699Z,20.70
2022-08-27T00:22:22.873Z,20.66
2022-08-27T00:24:49.360Z,20.61
2022-08-27T00:27:15.994Z,20.60
2022-08-27T00:29:42.492Z,20.56
2022-08-27T00:32:09.031Z,20.51
2022-08-27T00:34:35.998Z,20.54
2022-08-27T00:37:03.548Z,20.45
2022-08-27T00:39:30.318Z,20.50
2022-08-27T00:41:56.800Z,20.57
2022-08-27T00:44:23.232Z,20.60
2022-08-27T00:46:53.651Z,20.52
2022-08-27T00:49:22.779Z,20.58
2022-08-27T00:52:03.047Z,20.55
2022-08-27T00:54:29.928Z,20.55
2022-08-27T00:56:59.725Z,20.55
2022-08-27T00:59:30.958Z,20.59
2022-08-27T01:02:16.598Z,20.59
2022-08-27T01:04:49.830Z,20.57
2022-08-27T01:07:17.110Z,20.63
2022-08-27T01:09:45.447Z,20.78
2022-08-27T01:12:12.268Z,20.85
2022-08-27T01:14:39.858Z,20.85
2022-08-27T01:17:08.867Z,20.87
2022-08-27T01:20:02.179Z,20.87
2022-08-27T01:22:52.908Z,20.87
2022-08-27T01:25:20.368Z,20.87
2022-08-27T01:27:47.409Z,20.84
2022-08-27T01:30:18.227Z,20.86
2022-08-27T01:32:45.491Z,20.89
2022-08-27T01:35:14.550Z,20.88
2022-08-27T01:37:42.000Z,20.91
2022-08-27T01:40:09.689Z,20.83
2022-08-27T01:42:42.972Z,20.91
2022-08-27T01:45:13.472Z,20.53
2022-08-27T01:47:40.705Z,20.53
2022-08-27T01:50:16.467Z,20.55
2022-08-27T01:52:43.726Z,20.62
2022-08-27T01:55:13.086Z,20.48
2022-08-27T01:57:39.951Z,20.53
2022-08-27T02:00:13.929Z,20.50
2022-08-27T02:02:41.772Z,20.39
2022-08-27T02:05:08.632Z,20.49
2022-08-27T02:07:36.351Z,20.49
2022-08-27T02:10:03.856Z,20.48
2022-08-27T02:12:30.455Z,20.44
2022-08-27T02:14:57.018Z,20.51
2022-08-27T02:17:23.485Z,20.48
2022-08-27T02:19:49.948Z,20.45
2022-08-27T02:22:16.970Z,20.52
2022-08-27T02:24:43.502Z,20.43
2022-08-27T02:27:10.822Z,20.48
2022-08-27T02:29:37.460Z,20.52
2022-08-27T02:32:04.155Z,20.52
2022-08-27T02:34:30.672Z,20.48
2022-08-27T02:36:57.392Z,20.41
2022-08-27T02:39:24.137Z,20.48
2022-08-27T02:41:50.605Z,20.45
2022-08-27T02:44:17.192Z,20.32
2022-08-27T02:46:43.706Z,20.28
2022-08-27T02:49:10.374Z,20.31
2022-08-27T02:51:37.577Z,20.33
2022-08-27T02:54:05.954Z,20.36
2022-08-27T02:56:36.464Z,20.27
2022-08-27T02:59:03.688Z,20.24
2022-08-27T03:01:30.370Z,20.37
2022-08-27T03:03:57.536Z,20.29
2022-08-27T03:06:24.007Z,20.25
2022-08-27T03:08:53.325Z,20.19
2022-08-27T03:11:22.996Z,20.21
2022-08-27T03:13:50.165Z,20.16
2022-08-27T03:16:16.847Z,20.13
2022-08-27T03:18:43.622Z,20.09
2022-08-27T03:21:20.004Z,20.21
2022-08-27T03:23:47.517Z,20.24
2022-08-27T03:26:14.572Z,20.24
2022-08-27T03:28:41.139Z,20.27
2022-08-27T03:31:13.754Z,20.25
2022-08-27T03:33:40.894Z,20.27
2022-08-27T03:36:09.188Z,20.24
2022-08-27T03:38:37.257Z,20.22
2022-08-27T03:41:04.817Z,20.20
2022-08-27T03:43:31.919Z,20.22
2022-08-27T03:46:01.797Z,20.28
2022-08-27T03:48:30.198Z,20.28
2022-08-27T03:50:57.199Z,20.16
2022-08-27T03:53:23.812Z,19.99
2022-08-27T03:55:50.269Z,20.07
2022-08-27T03:58:17.934Z,20.24
2022-08-27T04:00:44.505Z,20.29
2022-08-27T04:03:14.015Z,20.33
2022-08-27T04:05:42.451Z,20.28
2022-08-27T04:08:13.203Z,20.23
2022-08-27T04:10:42.833Z,20.29
2022-08-27T04:13:09.434Z,20.26
2022-08-27T04:15:37.856Z,20.21
2022-08-27T04:18:07.462Z,20.28
2022-08-27T04:20:35.818Z,20.28
2022-08-27T04:23:03.105Z,20.29
2022-08-27T04:25:29.609Z,20.29
2022-08-27T04:27:56.050Z,20.27
2022-08-27T04:30:22.471Z,20.23
2022-08-27T04:32:48.957Z,20.28
2022-08-27T04:35:15.431Z,20.29
2022-08-27T04:37:42.181Z,20.32
2022-08-27T04:40:10.243Z,20.23
2022-08-27T04:42:36.839Z,20.28
2022-08-27T04:45:03.786Z,20.32
2022-08-27T04:47:31.069Z,20.25
2022-08-27T04:49:57.808Z,20.26
2022-08-27T04:52:25.341Z,20.24
2022-08-27T04:54:51.991Z,20.27
2022-08-27T04:57:18.783Z,20.22
2022-08-27T04:59:45.556Z,20.20
2022-08-27T05:02:12.535Z,20.21
2022-08-27T05:04:40.633Z,20.23
2022-08-27T05:07:08.766Z,20.31
2022-08-27T05:09:35.296Z,20.35
2022-08-27T05:12:02.064Z,20.30
2022-08-27T05:14:30.273Z,20.12
2022-08-27T05:17:00.513Z,20.20
2022-08-27T05:19:27.655Z,20.19
2022-08-27T05:21:54.407Z,20.23
2022-08-27T05:26:56.070Z,20.21
2022-08-27T05:29:22.536Z,20.31
2022-08-27T05:31:49.246Z,20.25
2022-08-27T05:34:18.855Z,20.34
2022-08-27T05:36:51.846Z,20.44
2022-08-27T05:39:18.429Z,20.48
2022-08-27T05:41:45.004Z,20.47
2022-08-27T05:44:39.456Z,20.46
2022-08-27T05:46:58.191Z,20.52
2022-08-27T05:49:24.744Z,20.55
2022-08-27T05:51:51.207Z,20.57
2022-08-27T05:54:21.477Z,20.54
2022-08-27T05:56:51.963Z,20.51
2022-08-27T05:59:37.961Z,20.45
2022-08-27T06:02:06.098Z,20.53
2022-08-27T06:04:32.735Z,20.55
2022-08-27T06:06:59.152Z,20.45
2022-08-27T06:09:28.919Z,20.35
2022-08-27T06:11:57.549Z,20.38
2022-08-27T06:14:24.586Z,20.26
2022-08-27T06:16:51.513Z,20.25
2022-08-27T06:19:18.323Z,20.34
2022-08-27T06:21:45.053Z,20.38
2022-08-27T06:24:13.359Z,20.39
2022-08-27T06:26:43.483Z,20.45
2022-08-27T06:29:11.808Z,20.28
2022-08-27T06:31:40.680Z,20.27
2022-08-27T06:34:08.630Z,20.23
2022-08-27T06:36:41.442Z,20.29
2022-08-27T06:39:13.141Z,20.36
2022-08-27T06:41:41.045Z,20.17
2022-08-27T06:44:07.578Z,20.26
2022-08-27T06:46:34.058Z,20.21
2022-08-27T06:49:01.290Z,20.21
2022-08-27T06:51:31.611Z,20.23
2022-08-27T06:54:01.250Z,20.26
2022-08-27T06:56:28.558Z,20.29
2022-08-27T06:58:57.351Z,20.39
2022-08-27T07:01:31.173Z,20.50
2022-08-27T07:04:04.345Z,20.49
2022-08-27T07:06:33.456Z,20.64
2022-08-27T07:09:00.576Z,20.50
2022-08-27T07:11:28.660Z,20.46
2022-08-27T07:13:56.153Z,20.44
2022-08-27T07:16:25.609Z,20.95
2022-08-27T07:18:55.902Z,21.09
2022-08-27T07:21:23.141Z,21.14
2022-08-27T07:23:51.876Z,21.81
2022-08-27T07:26:20.359Z,22.74
2022-08-27T07:28:47.965Z,24.29
2022-08-27T07:31:20.013Z,24.01
2022-08-27T07:33:51.536Z,25.54
2022-08-27T07:36:21.913Z,26.60
2022-08-27T07:38:56.691Z,27.34
2022-08-27T07:41:31.302Z,27.75
2022-08-27T07:44:20.410Z,25.95
2022-08-27T07:46:48.973Z,27.93
2022-08-27T07:49:17.564Z,28.55
2022-08-27T07:51:44.508Z,28.37
2022-08-27T07:54:11.281Z,28.24
2022-08-27T07:56:37.703Z,27.79
2022-08-27T07:59:04.214Z,27.23
2022-08-27T08:01:30.850Z,26.66
2022-08-27T08:03:57.382Z,26.36
2022-08-27T08:06:23.825Z,26.17
2022-08-27T08:08:50.388Z,25.86
2022-08-27T08:11:18.287Z,25.82
2022-08-27T08:13:46.125Z,25.83
2022-08-27T08:16:13.480Z,26.56
2022-08-27T08:18:40.623Z,27.12
2022-08-27T08:21:14.849Z,27.14
2022-08-27T08:23:42.429Z,27.25
2022-08-27T08:26:10.171Z,26.96
2022-08-27T08:28:37.051Z,26.65
2022-08-27T08:31:04.143Z,26.10
2022-08-27T08:33:31.664Z,26.02
2022-08-27T08:36:13.001Z,26.12
2022-08-27T08:38:40.626Z,25.87
2022-08-27T08:41:34.673Z,26.03
2022-08-27T08:44:15.384Z,25.93
2022-08-27T08:47:03.441Z,25.70
2022-08-27T08:49:57.056Z,25.43
2022-08-27T08:52:59.176Z,25.27
2022-08-27T08:55:47.682Z,25.14
2022-08-27T08:58:26.136Z,25.10
2022-08-27T09:00:59.488Z,25.06
2022-08-27T09:03:27.689Z,25.03
2022-08-27T09:06:03.490Z,25.08
2022-08-27T09:08:41.827Z,25.44
2022-08-27T09:11:39.776Z,25.60
2022-08-27T09:14:14.198Z,25.81
2022-08-27T09:16:40.765Z,25.96
2022-08-27T09:19:07.438Z,25.90
2022-08-27T09:21:53.586Z,25.46
2022-08-27T09:24:36.902Z,25.29
2022-08-27T09:27:03.807Z,25.02
2022-08-27T09:29:30.594Z,24.61
2022-08-27T09:32:05.471Z,24.03
2022-08-27T09:34:40.814Z,24.06
2022-08-27T09:37:33.815Z,23.74
2022-08-27T09:40:22.440Z,23.75
2022-08-27T09:42:56.509Z,23.58
2022-08-27T09:45:27.151Z,23.57
2022-08-27T09:47:55.169Z,23.47
2022-08-27T09:50:35.325Z,23.55
2022-08-27T09:53:02.126Z,23.58
2022-08-27T09:55:54.820Z,23.66
2022-08-27T09:58:34.357Z,23.63
2022-08-27T10:01:21.039Z,23.50
2022-08-27T10:03:48.228Z,23.28
2022-08-27T10:06:25.659Z,23.50
2022-08-27T10:08:54.664Z,23.47
2022-08-27T10:11:28.554Z,23.62
2022-08-27T10:14:03.596Z,23.73
2022-08-27T10:16:54.531Z,23.58
2022-08-27T10:19:33.017Z,23.62
2022-08-27T10:22:05.229Z,23.57
2022-08-27T10:24:49.115Z,23.43
2022-08-27T10:27:42.035Z,23.55
2022-08-27T10:30:13.710Z,23.71
2022-08-27T10:33:08.835Z,23.97
2022-08-27T10:36:22.251Z,24.20
2022-08-27T10:39:02.795Z,24.36
2022-08-27T10:41:39.742Z,24.30
2022-08-27T10:44:24.574Z,24.08
2022-08-27T10:47:06.441Z,24.17
2022-08-27T10:50:05.449Z,24.43
2022-08-27T10:52:44.093Z,24.59
2022-08-27T10:55:23.915Z,24.62
2022-08-27T10:58:13.166Z,24.68
2022-08-27T11:00:53.662Z,24.60
2022-08-27T11:03:46.497Z,24.72
2022-08-27T11:06:26.763Z,24.70
2022-08-27T11:09:07.417Z,24.65
2022-08-27T11:12:13.947Z,24.78
2022-08-27T11:14:53.153Z,24.85
2022-08-27T11:17:43.977Z,24.86
2022-08-27T11:20:22.303Z,24.95
2022-08-27T11:22:59.891Z,25.04
2022-08-27T11:26:08.240Z,25.03
2022-08-27T11:28:45.966Z,24.91
2022-08-27T11:31:36.745Z,24.82
2022-08-27T11:34:31.537Z,24.97
2022-08-27T11:37:19.380Z,25.15
2022-08-27T11:40:10.926Z,25.28
2022-08-27T11:42:48.674Z,25.27
2022-08-27T11:45:22.359Z,25.08
2022-08-27T11:47:55.036Z,25.24
2022-08-27T11:50:24.121Z,25.45
2022-08-27T11:53:05.782Z,25.59
2022-08-27T11:55:37.658Z,25.66
2022-08-27T11:58:24.089Z,25.86
2022-08-27T12:00:53.556Z,26.03
2022-08-27T12:03:20.044Z,26.15
2022-08-27T12:06:04.225Z,26.28
2022-08-27T12:08:34.126Z,26.47
2022-08-27T12:11:03.259Z,26.64
2022-08-27T12:13:41.943Z,26.72
2022-08-27T12:16:27.170Z,26.90
2022-08-27T12:19:02.639Z,26.84
2022-08-27T12:22:01.607Z,26.71
2022-08-27T12:24:57.923Z,26.06
2022-08-27T12:27:24.503Z,26.25
2022-08-27T12:30:21.185Z,26.73
2022-08-27T12:32:51.918Z,26.82
2022-08-27T12:35:29.416Z,27.13
2022-08-27T12:38:11.783Z,27.35
2022-08-27T12:40:41.163Z,27.46
2022-08-27T12:43:13.418Z,27.48
2022-08-27T12:45:49.908Z,27.87
2022-08-27T12:48:28.015Z,28.17
2022-08-27T12:51:01.149Z,28.03
2022-08-27T12:53:47.741Z,27.70
2022-08-27T12:56:35.274Z,28.00
2022-08-27T12:59:05.418Z,28.00
2022-08-27T13:02:07.010Z,28.11
2022-08-27T13:04:39.545Z,28.29
2022-08-27T13:07:06.037Z,28.42
2022-08-27T13:09:38.110Z,28.90
2022-08-27T13:12:14.582Z,29.98
2022-08-27T13:14:41.901Z,31.36
2022-08-27T13:17:10.102Z,32.90
2022-08-27T13:19:54.149Z,34.17
2022-08-27T13:22:23.645Z,34.97
2022-08-27T13:24:53.474Z,35.69
2022-08-27T13:27:37.324Z,36.23
2022-08-27T13:30:08.525Z,35.04
2022-08-27T13:32:37.305Z,33.20
2022-08-27T13:35:05.120Z,33.07
2022-08-27T13:37:41.402Z,33.18
2022-08-27T13:40:08.757Z,33.10
2022-08-27T13:42:41.433Z,33.13
2022-08-27T13:45:08.885Z,32.64
2022-08-27T13:47:49.128Z,31.67
2022-08-27T13:50:30.770Z,31.52
2022-08-27T13:53:31.092Z,31.15
2022-08-27T13:55:58.820Z,31.16
2022-08-27T13:58:33.653Z,32.43
2022-08-27T14:01:12.769Z,31.96
2022-08-27T14:03:51.112Z,31.56
2022-08-27T14:06:35.496Z,30.66
2022-08-27T14:09:17.299Z,29.93
2022-08-27T14:11:45.499Z,29.63
2022-08-27T14:14:13.039Z,29.29
2022-08-27T14:16:40.212Z,28.89
2022-08-27T14:19:10.907Z,29.09
2022-08-27T14:21:40.627Z,29.38
2022-08-27T14:24:08.068Z,29.76
2022-08-27T14:26:35.128Z,30.47
2022-08-27T14:29:01.632Z,30.94
2022-08-27T14:31:28.608Z,31.50
2022-08-27T14:33:55.231Z,31.58
2022-08-27T14:36:24.021Z,31.06
2022-08-27T14:38:52.511Z,30.78
2022-08-27T14:41:21.489Z,29.94
2022-08-27T14:43:49.833Z,29.68
2022-08-27T14:46:24.308Z,29.04
2022-08-27T14:48:52.320Z,28.42
2022-08-27T14:51:25.260Z,28.00
2022-08-27T14:53:52.615Z,27.59
2022-08-27T14:56:20.554Z,27.33
2022-08-27T14:58:47.913Z,27.21
2022-08-27T15:01:15.110Z,26.97
2022-08-27T15:03:47.737Z,27.07
2022-08-27T15:06:15.591Z,27.10
2022-08-27T15:08:44.745Z,27.28
2022-08-27T15:11:23.289Z,27.32
2022-08-27T15:13:51.607Z,27.31
2022-08-27T15:16:41.190Z,27.55
2022-08-27T15:19:10.786Z,27.58
2022-08-27T15:21:39.837Z,27.73
2022-08-27T15:24:17.548Z,28.32
2022-08-27T15:26:44.171Z,28.23
2022-08-27T15:29:11.113Z,28.10
2022-08-27T15:31:39.188Z,27.92
2022-08-27T15:34:06.462Z,27.63
2022-08-27T15:36:33.183Z,27.36
2022-08-27T15:38:59.779Z,27.03
2022-08-27T15:41:29.240Z,26.90
2022-08-27T15:43:56.707Z,26.59
2022-08-27T15:46:23.320Z,26.18
2022-08-27T15:48:49.899Z,25.89
2022-08-27T15:51:17.570Z,25.85
2022-08-27T15:53:44.209Z,25.58
2022-08-27T15:56:10.692Z,25.37
2022-08-27T15:58:38.560Z,25.27
2022-08-27T16:01:10.801Z,25.10
2022-08-27T16:03:38.682Z,24.68
2022-08-27T16:06:05.987Z,24.84
2022-08-27T16:08:33.904Z,24.79
2022-08-27T16:11:03.799Z,24.69
2022-08-27T16:13:30.979Z,24.66
2022-08-27T16:15:57.974Z,24.63
2022-08-27T16:18:29.462Z,24.57
2022-08-27T16:20:57.362Z,24.47
2022-08-27T16:23:26.111Z,24.53
2022-08-27T16:25:53.906Z,24.40
2022-08-27T16:28:20.367Z,24.49
2022-08-27T16:30:47.835Z,24.30
2022-08-27T16:33:14.673Z,24.22
2022-08-27T16:35:42.446Z,24.05
2022-08-27T16:38:10.554Z,23.74
2022-08-27T16:40:43.947Z,23.32
2022-08-27T16:43:14.928Z,23.22
2022-08-27T16:45:42.032Z,23.20
2022-08-27T16:48:27.084Z,23.11
2022-08-27T16:50:53.552Z,23.04
2022-08-27T16:53:23.976Z,23.06
2022-08-27T16:55:51.778Z,22.91
2022-08-27T16:58:28.230Z,22.84
2022-08-27T17:00:58.846Z,22.87
2022-08-27T17:03:26.229Z,22.76
2022-08-27T17:05:53.343Z,22.72
2022-08-27T17:08:22.172Z,22.83
2022-08-27T17:10:55.368Z,22.90
2022-08-27T17:13:28.255Z,22.82
2022-08-27T17:15:55.767Z,22.82
2022-08-27T17:18:27.151Z,22.72
2022-08-27T17:20:54.611Z,22.77
2022-08-27T17:23:30.903Z,22.78
2022-08-27T17:25:57.329Z,22.77
2022-08-27T17:28:23.817Z,22.63
2022-08-27T17:30:50.560Z,22.59
2022-08-27T17:33:29.663Z,22.50
2022-08-27T17:35:56.162Z,22.51
2022-08-27T17:38:22.674Z,22.47
2022-08-27T17:40:52.154Z,22.36
2022-08-27T17:43:21.229Z,22.41
2022-08-27T17:45:48.786Z,22.24
2022-08-27T17:48:18.022Z,22.26
2022-08-27T17:50:45.776Z,22.27
2022-08-27T17:53:12.259Z,22.23
2022-08-27T17:55:39.191Z,22.34
2022-08-27T17:58:05.807Z,22.20
2022-08-27T18:00:32.453Z,22.24
2022-08-27T18:02:59.495Z,22.17
2022-08-27T18:05:28.171Z,22.14
2022-08-27T18:07:56.860Z,21.99
2022-08-27T18:10:25.792Z,21.90
2022-08-27T18:12:55.193Z,21.85
2022-08-27T18:15:30.980Z,21.85
2022-08-27T18:17:58.056Z,21.81
2022-08-27T18:20:27.639Z,21.82
2022-08-27T18:22:54.282Z,21.81
2022-08-27T18:25:26.309Z,21.76
2022-08-27T18:27:56.753Z,21.70
2022-08-27T18:30:24.442Z,21.63
2022-08-27T18:32:51.583Z,21.42
2022-08-27T18:35:22.556Z,21.39
2022-08-27T18:37:49.966Z,21.35
2022-08-27T18:40:19.045Z,21.28
2022-08-27T18:42:46.509Z,21.35
2022-08-27T18:45:16.037Z,21.27
2022-08-27T18:47:43.340Z,21.25
2022-08-27T18:50:17.708Z,21.20
2022-08-27T18:52:45.867Z,21.16
2022-08-27T18:55:15.583Z,21.27
2022-08-27T18:57:42.062Z,21.19
2022-08-27T19:00:11.236Z,21.14
2022-08-27T19:02:38.141Z,21.10
2022-08-27T19:05:06.696Z,21.22
2022-08-27T19:07:33.149Z,21.18
2022-08-27T19:09:59.592Z,21.26
2022-08-27T19:12:26.098Z,21.15
2022-08-27T19:14:52.636Z,20.96
2022-08-27T19:17:28.892Z,20.91
2022-08-27T19:19:55.947Z,20.85
2022-08-27T19:22:22.653Z,20.80
2022-08-27T19:24:51.091Z,20.83
2022-08-27T19:27:24.718Z,20.77
2022-08-27T19:29:51.889Z,20.70
2022-08-27T19:32:18.742Z,20.77
2022-08-27T19:34:45.539Z,20.69
2022-08-27T19:37:20.207Z,20.70
2022-08-27T19:39:47.311Z,20.61
2022-08-27T19:42:13.731Z,20.64
2022-08-27T19:44:40.201Z,20.59
2022-08-27T19:47:08.931Z,20.53
2022-08-27T19:49:35.719Z,20.32
2022-08-27T19:52:06.198Z,20.43
2022-08-27T19:54:37.625Z,20.49
2022-08-27T19:57:14.309Z,20.34
2022-08-27T19:59:41.235Z,20.32
2022-08-27T20:02:10.101Z,20.32
2022-08-27T20:04:56.008Z,20.39
2022-08-27T20:07:25.969Z,20.37
2022-08-27T20:09:52.436Z,20.29
2022-08-27T20:12:18.988Z,20.26
2022-08-27T20:14:45.638Z,20.18
2022-08-27T20:17:18.551Z,20.15
2022-08-27T20:19:45.162Z,20.08
2022-08-27T20:22:13.139Z,19.94
2022-08-27T20:24:39.602Z,19.90
2022-08-27T20:27:06.049Z,19.89
2022-08-27T20:29:33.063Z,19.85
2022-08-27T20:32:00.141Z,19.87
2022-08-27T20:34:29.405Z,19.80
2022-08-27T20:36:56.091Z,19.78
2022-08-27T20:39:22.585Z,19.72
2022-08-27T20:41:49.058Z,19.70
2022-08-27T20:44:16.980Z,19.64
2022-08-27T20:46:43.755Z,19.56
2022-08-27T20:49:15.505Z,19.46
2022-08-27T20:52:01.826Z,19.35
2022-08-27T20:54:28.390Z,19.19
2022-08-27T20:56:54.871Z,19.09
2022-08-27T20:59:39.870Z,19.06
2022-08-27T21:02:09.885Z,18.94
2022-08-27T21:04:39.130Z,18.81
2022-08-27T21:07:06.379Z,18.72
2022-08-27T21:09:33.250Z,18.62
2022-08-27T21:11:59.813Z,18.56
2022-08-27T21:14:26.410Z,18.50
2022-08-27T21:16:54.575Z,18.41
2022-08-27T21:19:21.554Z,18.34
2022-08-27T21:21:48.513Z,18.25
2022-08-27T21:24:15.068Z,18.14
2022-08-27T21:26:41.581Z,17.99
2022-08-27T21:29:08.174Z,17.93
2022-08-27T21:31:34.744Z,17.81
2022-08-27T21:34:01.316Z,17.61
2022-08-27T21:36:27.919Z,17.64
2022-08-27T21:38:54.385Z,17.65
2022-08-27T21:41:21.519Z,17.63
2022-08-27T21:43:48.351Z,17.48
2022-08-27T21:46:14.938Z,17.40
2022-08-27T21:48:41.669Z,17.24
2022-08-27T21:51:13.883Z,17.32
2022-08-27T21:53:41.280Z,17.31
2022-08-27T21:56:10.908Z,17.19
2022-08-27T21:58:38.262Z,17.11
2022-08-27T22:01:05.867Z,16.90
2022-08-27T22:03:34.494Z,17.05
2022-08-27T22:06:01.042Z,17.10
2022-08-27T22:08:27.470Z,17.09
2022-08-27T22:10:57.874Z,17.07
2022-08-27T22:13:24.979Z,16.96
2022-08-27T22:15:51.522Z,16.96
2022-08-27T22:18:18.530Z,17.07
2022-08-27T22:20:44.999Z,16.89
2022-08-27T22:23:12.741Z,16.89
2022-08-27T22:25:41.250Z,16.85
2022-08-27T22:28:07.923Z,16.99
2022-08-27T22:30:34.647Z,17.03
2022-08-27T22:33:01.231Z,17.10
2022-08-27T22:35:28.019Z,17.07
2022-08-27T22:37:55.566Z,17.05
2022-08-27T22:40:24.607Z,17.04
2022-08-27T22:42:52.745Z,16.95
2022-08-27T22:45:20.503Z,17.11
2022-08-27T22:47:47.460Z,17.03
2022-08-27T22:50:14.400Z,16.99
2022-08-27T22:52:44.256Z,16.95
2022-08-27T22:55:13.061Z,16.90
2022-08-27T22:57:39.563Z,16.92
2022-08-27T23:00:11.716Z,16.97
2022-08-27T23:02:39.136Z,16.67
2022-08-27T23:05:07.057Z,16.83
2022-08-27T23:07:33.953Z,16.92
2022-08-27T23:10:00.957Z,16.91
2022-08-27T23:12:27.450Z,16.96
2022-08-27T23:14:53.924Z,16.90
2022-08-27T23:17:21.313Z,16.84
2022-08-27T23:19:48.039Z,16.83
2022-08-27T23:22:15.335Z,16.76
2022-08-27T23:25:00.461Z,16.74
2022-08-27T23:27:29.793Z,16.52
2022-08-27T23:29:57.497Z,16.65
2022-08-27T23:32:24.108Z,16.48
2022-08-27T23:34:50.570Z,16.34
2022-08-27T23:37:17.441Z,16.43
2022-08-27T23:39:43.989Z,16.39
2022-08-27T23:42:10.607Z,16.35
2022-08-27T23:44:37.690Z,16.35
2022-08-27T23:47:04.258Z,16.31
2022-08-27T23:49:32.172Z,16.26
2022-08-27T23:51:58.669Z,16.21
2022-08-27T23:54:25.515Z,16.18
2022-08-27T23:56:51.962Z,16.19
2022-08-27T23:59:18.409Z,16.06
